Maldives Meteorological Service

TAFS

Station TAF
VRMM
VRMM 030500Z 0306/0412 07009KT 9999 FEW018=
VRMH
VRMH 030500Z 0306/0412 06005KT 9999 FEW018=
VRMK
VRMK 030500Z 0306/0406 04007KT 9999 FEW018TCU TEMPO 0306/0312 FEW018CB=
VRMT
VRMT 030500Z 0306/0406 05008KT 9999 FEW018TCU TEMPO 0308/0315 6000 -SHRA FEW018CB=
VRMG
VRMG 020500Z 0306/0412 01006KT 9999 FEW018 TEMPO 0306/0312 FEW018CB=